»·PEaware :: WAT295 KONT-KSBA

WAT295 :: KONT-KSBA

FLIGHT INFORMATION

Flight Status: Arrived
Operator: Unknown
More flights by this operator :: More flights under this callsign
Pilot: Corentin D. (28157)
Aircraft: MOONEY M-20K/M ENCORE BRAVO
(M20T)
More flights by this aircraft type
Origin: KONT Ontario Intl
United States
Destination: KSBA Santa Barbara Mun
United States
More flights between these airports :: More routes between these airports
Route: PDZ V186 DEANO V27 KWANG
File this flight plan on PilotEdge
Remarks: TEC route ONTP16
Altitude:
(Current/Filed)
6,000ft
Speed:
(Current/Filed)
170kts
Departed: 22-Jul-20 06:07 PM
Arrived: 22-Jul-20 06:51 PM
Distance/Time
Traveled:
113nm/0:43
Distance/Time
To Go:
Arrived

Flight Plot

Page will automatically refresh every two minutes.


Map Options




Map Legend


Flown Route
Filed Route
Departure Airport
Arrival Airport
Navaid (VOR, NDB)
Fix

Horizontal Profiles

Position Reports

Time Latitude Longitude Heading Altitude Ground
Speed
22-Jul-20 17:49 34.051687 -117.603166 269 909ft 0kts
22-Jul-20 17:50 34.051687 -117.603166 269 909ft 0kts
22-Jul-20 17:51 34.051687 -117.603166 269 909ft 0kts
22-Jul-20 17:52 34.051687 -117.603166 269 909ft 0kts
22-Jul-20 17:53 34.051687 -117.603166 269 909ft 0kts
22-Jul-20 17:54 34.051687 -117.603166 269 909ft 0kts
22-Jul-20 17:55 34.051687 -117.603166 269 909ft 0kts
22-Jul-20 17:56 34.051687 -117.603172 270 909ft 0kts
22-Jul-20 17:57 34.051687 -117.603172 270 909ft 0kts
22-Jul-20 17:58 34.051887 -117.603599 351 911ft 4kts
22-Jul-20 17:59 34.052815 -117.603827 356 916ft 0kts
22-Jul-20 18:00 34.053762 -117.603675 34 921ft 10kts
22-Jul-20 18:01 34.053882 -117.596369 91 918ft 25kts
22-Jul-20 18:02 34.054012 -117.589413 97 918ft 16kts
22-Jul-20 18:04 34.054050 -117.582539 24 923ft 0kts
22-Jul-20 18:04 34.054050 -117.582539 24 923ft 0kts
22-Jul-20 18:05 34.054050 -117.582539 24 923ft 0kts
22-Jul-20 18:06 34.054961 -117.585699 270 924ft 65kts
22-Jul-20 18:07 34.055010 -117.621314 270 2101ft 125kts
22-Jul-20 18:08 34.057242 -117.665506 270 3615ft 137kts
22-Jul-20 18:09 34.059321 -117.708813 269 5509ft 121kts
22-Jul-20 18:10 34.061927 -117.758571 272 6015ft 182kts
22-Jul-20 18:11 34.065709 -117.822676 272 6016ft 192kts
22-Jul-20 18:12 34.069049 -117.885192 271 6015ft 180kts
22-Jul-20 18:13 34.072124 -117.945651 271 6013ft 176kts
22-Jul-20 18:14 34.075781 -118.005114 279 6008ft 181kts
22-Jul-20 18:15 34.092947 -118.063168 288 6009ft 185kts
22-Jul-20 18:16 34.110955 -118.121629 287 6008ft 186kts
22-Jul-20 18:17 34.128881 -118.180199 287 6008ft 186kts
22-Jul-20 18:18 34.146867 -118.238943 287 5990ft 187kts
22-Jul-20 18:19 34.164839 -118.297850 287 5989ft 186kts
22-Jul-20 18:20 34.182749 -118.356751 287 5989ft 187kts
22-Jul-20 18:21 34.199706 -118.412564 286 5987ft 183kts
22-Jul-20 18:22 34.217230 -118.470561 286 5983ft 184kts
22-Jul-20 18:23 34.235988 -118.528860 289 5976ft 188kts
22-Jul-20 18:24 34.255471 -118.584604 289 5973ft 189kts
22-Jul-20 18:25 34.275466 -118.642676 289 5980ft 187kts
22-Jul-20 18:26 34.294540 -118.698385 289 5986ft 183kts
22-Jul-20 18:27 34.313917 -118.755101 289 5994ft 181kts
22-Jul-20 18:28 34.333061 -118.811313 290 6000ft 179kts
22-Jul-20 18:29 34.351980 -118.866883 289 6000ft 178kts
22-Jul-20 18:30 34.353649 -118.925605 263 6000ft 175kts
22-Jul-20 18:31 34.349396 -118.984381 263 6009ft 175kts
22-Jul-20 18:32 34.345070 -119.043174 264 6009ft 175kts
22-Jul-20 18:33 34.340720 -119.101884 264 6011ft 174kts
22-Jul-20 18:34 34.336372 -119.160171 265 6013ft 173kts
22-Jul-20 18:35 34.332005 -119.218264 264 6015ft 173kts
22-Jul-20 18:36 34.327538 -119.276205 265 6017ft 172kts
22-Jul-20 18:37 34.323126 -119.333859 264 6018ft 171kts
22-Jul-20 18:38 34.318625 -119.394088 265 5142ft 189kts
22-Jul-20 18:39 34.317286 -119.455051 281 4020ft 157kts
22-Jul-20 18:40 34.326125 -119.499662 284 4018ft 134kts
22-Jul-20 18:41 34.341664 -119.542044 291 4019ft 143kts
22-Jul-20 18:42 34.359170 -119.587896 292 4016ft 152kts
22-Jul-20 18:43 34.376523 -119.633255 292 4013ft 139kts
22-Jul-20 18:44 34.398996 -119.674332 304 2659ft 150kts
22-Jul-20 18:45 34.421045 -119.705594 305 2167ft 113kts
22-Jul-20 18:46 34.429880 -119.738710 263 1621ft 105kts
22-Jul-20 18:47 34.429128 -119.772982 265 1046ft 98kts
22-Jul-20 18:48 34.428475 -119.806036 263 525ft 96kts
22-Jul-20 18:49 34.427951 -119.831287 262 133ft 76kts
22-Jul-20 18:50 34.429213 -119.842189 340 15ft 16kts
22-Jul-20 18:51 34.430284 -119.843130 155 15ft 0kts
22-Jul-20 18:52 34.430284 -119.843130 155 15ft 0kts

Navigation Log

Ident Type
Flight plan parsing failed, navigation log unavailable